sensor_id;sensor_type;location;lat;lon;timestamp;P1;durP1;ratioP1;P2;durP2;ratioP2
13967;SDS011;39536;52.198;9.920;2023-09-08T00:00:22;8.87;;;8.20;;
13967;SDS011;39536;52.198;9.920;2023-09-08T00:02:49;8.13;;;7.63;;
13967;SDS011;39536;52.198;9.920;2023-09-08T00:05:16;10.63;;;8.27;;
13967;SDS011;39536;52.198;9.920;2023-09-08T00:07:42;8.77;;;7.93;;
13967;SDS011;39536;52.198;9.920;2023-09-08T00:10:09;8.17;;;7.37;;
13967;SDS011;39536;52.198;9.920;2023-09-08T00:12:37;7.57;;;6.97;;
13967;SDS011;39536;52.198;9.920;2023-09-08T00:15:06;8.80;;;8.00;;
13967;SDS011;39536;52.198;9.920;2023-09-08T00:17:33;7.63;;;7.13;;
13967;SDS011;39536;52.198;9.920;2023-09-08T00:20:01;7.93;;;7.33;;
13967;SDS011;39536;52.198;9.920;2023-09-08T00:22:33;9.23;;;8.33;;
13967;SDS011;39536;52.198;9.920;2023-09-08T00:25:00;8.97;;;8.17;;
13967;SDS011;39536;52.198;9.920;2023-09-08T00:27:27;8.30;;;7.80;;
13967;SDS011;39536;52.198;9.920;2023-09-08T00:29:53;9.00;;;8.30;;
13967;SDS011;39536;52.198;9.920;2023-09-08T00:32:21;8.40;;;7.73;;
13967;SDS011;39536;52.198;9.920;2023-09-08T00:34:48;7.53;;;7.03;;
13967;SDS011;39536;52.198;9.920;2023-09-08T00:37:15;8.77;;;8.00;;
13967;SDS011;39536;52.198;9.920;2023-09-08T00:39:41;8.40;;;7.87;;
13967;SDS011;39536;52.198;9.920;2023-09-08T00:42:08;8.53;;;7.93;;
13967;SDS011;39536;52.198;9.920;2023-09-08T00:44:35;11.07;;;8.53;;
13967;SDS011;39536;52.198;9.920;2023-09-08T00:47:01;9.17;;;8.47;;
13967;SDS011;39536;52.198;9.920;2023-09-08T00:49:29;9.30;;;8.60;;
13967;SDS011;39536;52.198;9.920;2023-09-08T00:51:56;9.20;;;8.43;;
13967;SDS011;39536;52.198;9.920;2023-09-08T00:54:23;9.70;;;8.90;;
13967;SDS011;39536;52.198;9.920;2023-09-08T00:56:52;9.03;;;8.27;;
13967;SDS011;39536;52.198;9.920;2023-09-08T00:59:22;9.23;;;8.57;;
13967;SDS011;39536;52.198;9.920;2023-09-08T01:01:50;8.93;;;8.23;;
13967;SDS011;39536;52.198;9.920;2023-09-08T01:07:07;9.63;;;8.97;;
13967;SDS011;39536;52.198;9.920;2023-09-08T01:09:34;9.97;;;9.00;;
13967;SDS011;39536;52.198;9.920;2023-09-08T01:12:03;12.03;;;8.67;;
13967;SDS011;39536;52.198;9.920;2023-09-08T01:14:32;8.87;;;7.90;;
13967;SDS011;39536;52.198;9.920;2023-09-08T01:16:59;8.73;;;7.87;;
13967;SDS011;39536;52.198;9.920;2023-09-08T01:19:25;8.60;;;7.77;;
13967;SDS011;39536;52.198;9.920;2023-09-08T01:21:57;8.33;;;7.63;;
13967;SDS011;39536;52.198;9.920;2023-09-08T01:24:44;8.53;;;7.80;;
13967;SDS011;39536;52.198;9.920;2023-09-08T01:27:39;8.47;;;7.87;;
13967;SDS011;39536;52.198;9.920;2023-09-08T01:30:09;8.87;;;8.17;;
13967;SDS011;39536;52.198;9.920;2023-09-08T01:32:38;10.03;;;8.27;;
13967;SDS011;39536;52.198;9.920;2023-09-08T01:35:06;9.23;;;8.53;;
13967;SDS011;39536;52.198;9.920;2023-09-08T01:37:33;9.17;;;8.57;;
13967;SDS011;39536;52.198;9.920;2023-09-08T01:40:00;9.13;;;8.53;;
13967;SDS011;39536;52.198;9.920;2023-09-08T01:42:28;12.03;;;9.57;;
13967;SDS011;39536;52.198;9.920;2023-09-08T01:44:55;9.67;;;8.97;;
13967;SDS011;39536;52.198;9.920;2023-09-08T01:47:21;10.73;;;8.83;;
13967;SDS011;39536;52.198;9.920;2023-09-08T01:49:48;10.07;;;9.27;;
13967;SDS011;39536;52.198;9.920;2023-09-08T01:52:15;10.73;;;9.20;;
13967;SDS011;39536;52.198;9.920;2023-09-08T01:54:42;9.63;;;8.93;;
13967;SDS011;39536;52.198;9.920;2023-09-08T01:57:09;9.93;;;9.23;;
13967;SDS011;39536;52.198;9.920;2023-09-08T01:59:37;10.03;;;9.23;;
13967;SDS011;39536;52.198;9.920;2023-09-08T02:02:04;10.03;;;9.33;;
13967;SDS011;39536;52.198;9.920;2023-09-08T02:04:31;10.67;;;9.70;;
13967;SDS011;39536;52.198;9.920;2023-09-08T02:06:58;9.53;;;8.87;;
13967;SDS011;39536;52.198;9.920;2023-09-08T02:09:31;10.67;;;9.77;;
13967;SDS011;39536;52.198;9.920;2023-09-08T02:11:58;9.90;;;9.17;;
13967;SDS011;39536;52.198;9.920;2023-09-08T02:14:26;9.50;;;8.90;;
13967;SDS011;39536;52.198;9.920;2023-09-08T02:16:55;9.30;;;8.60;;
13967;SDS011;39536;52.198;9.920;2023-09-08T02:19:22;10.30;;;9.50;;
13967;SDS011;39536;52.198;9.920;2023-09-08T02:21:49;10.13;;;9.13;;
13967;SDS011;39536;52.198;9.920;2023-09-08T02:24:15;9.33;;;8.53;;
13967;SDS011;39536;52.198;9.920;2023-09-08T02:26:42;8.67;;;7.97;;
13967;SDS011;39536;52.198;9.920;2023-09-08T02:29:09;9.27;;;8.67;;
13967;SDS011;39536;52.198;9.920;2023-09-08T02:31:36;9.00;;;8.33;;
13967;SDS011;39536;52.198;9.920;2023-09-08T02:34:04;9.70;;;8.80;;
13967;SDS011;39536;52.198;9.920;2023-09-08T02:36:30;9.43;;;8.60;;
13967;SDS011;39536;52.198;9.920;2023-09-08T02:38:57;9.93;;;9.23;;
13967;SDS011;39536;52.198;9.920;2023-09-08T02:41:24;12.20;;;8.13;;
13967;SDS011;39536;52.198;9.920;2023-09-08T02:43:50;10.00;;;8.90;;
13967;SDS011;39536;52.198;9.920;2023-09-08T02:46:17;8.77;;;8.17;;
13967;SDS011;39536;52.198;9.920;2023-09-08T02:48:44;8.90;;;8.30;;
13967;SDS011;39536;52.198;9.920;2023-09-08T02:51:12;9.77;;;8.90;;
13967;SDS011;39536;52.198;9.920;2023-09-08T02:53:38;10.07;;;9.13;;
13967;SDS011;39536;52.198;9.920;2023-09-08T02:56:05;9.13;;;8.23;;
13967;SDS011;39536;52.198;9.920;2023-09-08T02:58:32;8.97;;;8.27;;
13967;SDS011;39536;52.198;9.920;2023-09-08T03:01:09;8.53;;;7.83;;
13967;SDS011;39536;52.198;9.920;2023-09-08T03:03:36;8.87;;;8.13;;
13967;SDS011;39536;52.198;9.920;2023-09-08T03:06:03;9.07;;;8.37;;
13967;SDS011;39536;52.198;9.920;2023-09-08T03:08:31;8.83;;;8.33;;
13967;SDS011;39536;52.198;9.920;2023-09-08T03:10:59;9.47;;;8.57;;
13967;SDS011;39536;52.198;9.920;2023-09-08T03:13:26;8.60;;;8.00;;
13967;SDS011;39536;52.198;9.920;2023-09-08T03:15:54;8.67;;;8.07;;
13967;SDS011;39536;52.198;9.920;2023-09-08T03:18:20;9.20;;;8.37;;
13967;SDS011;39536;52.198;9.920;2023-09-08T03:20:48;8.57;;;7.97;;
13967;SDS011;39536;52.198;9.920;2023-09-08T03:23:15;8.70;;;8.10;;
13967;SDS011;39536;52.198;9.920;2023-09-08T03:25:43;9.43;;;8.77;;
13967;SDS011;39536;52.198;9.920;2023-09-08T03:28:10;10.43;;;9.63;;
13967;SDS011;39536;52.198;9.920;2023-09-08T03:30:37;9.30;;;8.60;;
13967;SDS011;39536;52.198;9.920;2023-09-08T03:33:04;9.10;;;8.40;;
13967;SDS011;39536;52.198;9.920;2023-09-08T03:35:31;9.13;;;8.20;;
13967;SDS011;39536;52.198;9.920;2023-09-08T03:37:57;9.07;;;8.37;;
13967;SDS011;39536;52.198;9.920;2023-09-08T03:40:24;9.30;;;8.60;;
13967;SDS011;39536;52.198;9.920;2023-09-08T03:42:52;9.73;;;9.03;;
13967;SDS011;39536;52.198;9.920;2023-09-08T03:45:19;9.13;;;8.53;;
13967;SDS011;39536;52.198;9.920;2023-09-08T03:47:46;10.03;;;9.43;;
13967;SDS011;39536;52.198;9.920;2023-09-08T03:50:12;10.30;;;9.40;;
13967;SDS011;39536;52.198;9.920;2023-09-08T03:52:39;10.00;;;9.30;;
13967;SDS011;39536;52.198;9.920;2023-09-08T03:55:06;9.60;;;9.00;;
13967;SDS011;39536;52.198;9.920;2023-09-08T03:57:33;10.67;;;9.87;;
13967;SDS011;39536;52.198;9.920;2023-09-08T04:00:01;9.23;;;8.63;;
13967;SDS011;39536;52.198;9.920;2023-09-08T04:02:30;10.57;;;9.57;;
13967;SDS011;39536;52.198;9.920;2023-09-08T04:04:57;9.83;;;9.13;;
13967;SDS011;39536;52.198;9.920;2023-09-08T04:07:23;11.10;;;10.10;;
13967;SDS011;39536;52.198;9.920;2023-09-08T04:09:50;9.90;;;9.10;;
13967;SDS011;39536;52.198;9.920;2023-09-08T04:12:17;10.33;;;9.63;;
13967;SDS011;39536;52.198;9.920;2023-09-08T04:14:43;9.70;;;9.10;;
13967;SDS011;39536;52.198;9.920;2023-09-08T04:17:11;10.20;;;9.37;;
13967;SDS011;39536;52.198;9.920;2023-09-08T04:19:38;10.37;;;9.67;;
13967;SDS011;39536;52.198;9.920;2023-09-08T04:22:05;9.77;;;8.97;;
13967;SDS011;39536;52.198;9.920;2023-09-08T04:24:34;11.07;;;10.27;;
13967;SDS011;39536;52.198;9.920;2023-09-08T04:27:01;10.23;;;9.53;;
13967;SDS011;39536;52.198;9.920;2023-09-08T04:29:28;10.93;;;9.90;;
13967;SDS011;39536;52.198;9.920;2023-09-08T04:31:54;10.67;;;9.57;;
13967;SDS011;39536;52.198;9.920;2023-09-08T04:34:22;10.60;;;9.60;;
13967;SDS011;39536;52.198;9.920;2023-09-08T04:36:49;10.00;;;9.10;;
13967;SDS011;39536;52.198;9.920;2023-09-08T04:39:16;10.43;;;9.40;;
13967;SDS011;39536;52.198;9.920;2023-09-08T04:41:42;10.27;;;9.47;;
13967;SDS011;39536;52.198;9.920;2023-09-08T04:44:09;10.53;;;9.80;;
13967;SDS011;39536;52.198;9.920;2023-09-08T04:46:35;11.10;;;10.20;;
13967;SDS011;39536;52.198;9.920;2023-09-08T04:49:02;10.80;;;9.80;;
13967;SDS011;39536;52.198;9.920;2023-09-08T04:51:30;15.70;;;10.00;;
13967;SDS011;39536;52.198;9.920;2023-09-08T04:53:57;10.67;;;9.80;;
13967;SDS011;39536;52.198;9.920;2023-09-08T04:56:23;11.13;;;10.23;;
13967;SDS011;39536;52.198;9.920;2023-09-08T04:58:50;10.63;;;9.83;;
13967;SDS011;39536;52.198;9.920;2023-09-08T05:01:17;11.43;;;10.37;;
13967;SDS011;39536;52.198;9.920;2023-09-08T05:03:44;11.20;;;10.03;;
13967;SDS011;39536;52.198;9.920;2023-09-08T05:06:11;11.17;;;10.27;;
13967;SDS011;39536;52.198;9.920;2023-09-08T05:08:40;10.73;;;9.80;;
13967;SDS011;39536;52.198;9.920;2023-09-08T05:11:06;10.80;;;9.70;;
13967;SDS011;39536;52.198;9.920;2023-09-08T05:13:34;9.30;;;8.67;;
13967;SDS011;39536;52.198;9.920;2023-09-08T05:16:00;9.90;;;9.20;;
13967;SDS011;39536;52.198;9.920;2023-09-08T05:18:36;9.80;;;9.10;;
13967;SDS011;39536;52.198;9.920;2023-09-08T05:21:02;9.57;;;8.67;;
13967;SDS011;39536;52.198;9.920;2023-09-08T05:23:29;9.73;;;9.00;;
13967;SDS011;39536;52.198;9.920;2023-09-08T05:25:57;9.50;;;8.70;;
13967;SDS011;39536;52.198;9.920;2023-09-08T05:28:24;8.80;;;8.00;;
13967;SDS011;39536;52.198;9.920;2023-09-08T05:30:51;9.47;;;8.57;;
13967;SDS011;39536;52.198;9.920;2023-09-08T05:33:18;9.57;;;8.87;;
13967;SDS011;39536;52.198;9.920;2023-09-08T05:35:45;9.03;;;8.33;;
13967;SDS011;39536;52.198;9.920;2023-09-08T05:38:12;8.90;;;8.27;;
13967;SDS011;39536;52.198;9.920;2023-09-08T05:40:39;9.23;;;8.40;;
13967;SDS011;39536;52.198;9.920;2023-09-08T05:43:07;8.97;;;8.20;;
13967;SDS011;39536;52.198;9.920;2023-09-08T05:45:34;12.10;;;8.70;;
13967;SDS011;39536;52.198;9.920;2023-09-08T05:48:00;11.43;;;9.00;;
13967;SDS011;39536;52.198;9.920;2023-09-08T05:50:28;9.63;;;8.77;;
13967;SDS011;39536;52.198;9.920;2023-09-08T05:52:54;11.97;;;8.57;;
13967;SDS011;39536;52.198;9.920;2023-09-08T05:55:21;11.03;;;8.43;;
13967;SDS011;39536;52.198;9.920;2023-09-08T05:57:48;9.30;;;8.60;;
13967;SDS011;39536;52.198;9.920;2023-09-08T06:00:17;9.00;;;8.27;;
13967;SDS011;39536;52.198;9.920;2023-09-08T06:02:44;9.70;;;9.00;;
13967;SDS011;39536;52.198;9.920;2023-09-08T06:05:15;9.20;;;8.50;;
13967;SDS011;39536;52.198;9.920;2023-09-08T06:07:42;9.47;;;8.60;;
13967;SDS011;39536;52.198;9.920;2023-09-08T06:10:09;11.67;;;9.20;;
13967;SDS011;39536;52.198;9.920;2023-09-08T06:12:36;8.70;;;8.10;;
13967;SDS011;39536;52.198;9.920;2023-09-08T06:15:03;10.20;;;9.20;;
13967;SDS011;39536;52.198;9.920;2023-09-08T06:17:32;10.30;;;8.77;;
13967;SDS011;39536;52.198;9.920;2023-09-08T06:19:59;10.93;;;9.00;;
13967;SDS011;39536;52.198;9.920;2023-09-08T06:22:25;11.40;;;8.67;;
13967;SDS011;39536;52.198;9.920;2023-09-08T06:24:52;14.13;;;9.03;;
13967;SDS011;39536;52.198;9.920;2023-09-08T06:27:20;9.70;;;8.97;;
13967;SDS011;39536;52.198;9.920;2023-09-08T06:29:47;9.37;;;8.47;;
13967;SDS011;39536;52.198;9.920;2023-09-08T06:32:14;8.83;;;7.97;;
13967;SDS011;39536;52.198;9.920;2023-09-08T06:34:43;10.43;;;9.47;;
13967;SDS011;39536;52.198;9.920;2023-09-08T06:37:10;9.97;;;8.63;;
13967;SDS011;39536;52.198;9.920;2023-09-08T06:39:37;9.50;;;8.73;;
13967;SDS011;39536;52.198;9.920;2023-09-08T06:42:05;8.87;;;8.00;;
13967;SDS011;39536;52.198;9.920;2023-09-08T06:44:32;10.70;;;9.70;;
13967;SDS011;39536;52.198;9.920;2023-09-08T06:46:59;9.17;;;8.27;;
13967;SDS011;39536;52.198;9.920;2023-09-08T06:49:26;13.03;;;8.97;;
13967;SDS011;39536;52.198;9.920;2023-09-08T06:51:54;13.83;;;8.97;;
13967;SDS011;39536;52.198;9.920;2023-09-08T06:54:21;9.83;;;8.67;;
13967;SDS011;39536;52.198;9.920;2023-09-08T06:56:48;9.90;;;9.00;;
13967;SDS011;39536;52.198;9.920;2023-09-08T06:59:15;11.00;;;9.70;;
13967;SDS011;39536;52.198;9.920;2023-09-08T07:01:42;10.43;;;9.53;;
13967;SDS011;39536;52.198;9.920;2023-09-08T07:04:12;11.40;;;9.90;;
13967;SDS011;39536;52.198;9.920;2023-09-08T07:06:39;14.97;;;9.90;;
13967;SDS011;39536;52.198;9.920;2023-09-08T07:09:13;12.40;;;9.20;;
13967;SDS011;39536;52.198;9.920;2023-09-08T07:11:40;10.90;;;10.00;;
13967;SDS011;39536;52.198;9.920;2023-09-08T07:14:08;11.80;;;9.73;;
13967;SDS011;39536;52.198;9.920;2023-09-08T07:16:37;11.03;;;9.93;;
13967;SDS011;39536;52.198;9.920;2023-09-08T07:19:04;10.67;;;9.77;;
13967;SDS011;39536;52.198;9.920;2023-09-08T07:21:34;10.67;;;9.67;;
13967;SDS011;39536;52.198;9.920;2023-09-08T07:24:01;12.33;;;10.20;;
13967;SDS011;39536;52.198;9.920;2023-09-08T07:26:30;10.20;;;9.20;;
13967;SDS011;39536;52.198;9.920;2023-09-08T07:28:57;10.97;;;9.53;;
13967;SDS011;39536;52.198;9.920;2023-09-08T07:31:25;10.73;;;9.83;;
13967;SDS011;39536;52.198;9.920;2023-09-08T07:33:55;8.87;;;8.27;;
13967;SDS011;39536;52.198;9.920;2023-09-08T07:36:22;10.00;;;9.07;;
13967;SDS011;39536;52.198;9.920;2023-09-08T07:38:49;8.90;;;8.20;;
13967;SDS011;39536;52.198;9.920;2023-09-08T07:41:16;9.90;;;8.90;;
13967;SDS011;39536;52.198;9.920;2023-09-08T07:43:44;9.67;;;8.77;;
13967;SDS011;39536;52.198;9.920;2023-09-08T07:46:17;11.23;;;10.37;;
13967;SDS011;39536;52.198;9.920;2023-09-08T07:48:47;10.67;;;9.77;;
13967;SDS011;39536;52.198;9.920;2023-09-08T07:51:14;9.83;;;8.73;;
13967;SDS011;39536;52.198;9.920;2023-09-08T07:53:41;8.93;;;8.20;;
13967;SDS011;39536;52.198;9.920;2023-09-08T07:56:09;10.57;;;7.97;;
13967;SDS011;39536;52.198;9.920;2023-09-08T07:58:39;8.83;;;8.20;;
13967;SDS011;39536;52.198;9.920;2023-09-08T08:01:07;8.93;;;8.07;;
13967;SDS011;39536;52.198;9.920;2023-09-08T08:03:37;9.47;;;8.53;;
13967;SDS011;39536;52.198;9.920;2023-09-08T08:06:04;14.90;;;8.43;;
13967;SDS011;39536;52.198;9.920;2023-09-08T08:08:35;12.33;;;8.73;;
13967;SDS011;39536;52.198;9.920;2023-09-08T08:11:08;13.50;;;8.83;;
13967;SDS011;39536;52.198;9.920;2023-09-08T08:13:42;10.20;;;9.30;;
13967;SDS011;39536;52.198;9.920;2023-09-08T08:16:11;9.57;;;8.53;;
13967;SDS011;39536;52.198;9.920;2023-09-08T08:18:38;10.63;;;8.53;;
13967;SDS011;39536;52.198;9.920;2023-09-08T08:21:06;9.37;;;7.93;;
13967;SDS011;39536;52.198;9.920;2023-09-08T08:23:33;15.47;;;9.00;;
13967;SDS011;39536;52.198;9.920;2023-09-08T08:26:14;14.20;;;7.90;;
13967;SDS011;39536;52.198;9.920;2023-09-08T08:28:55;10.37;;;7.43;;
13967;SDS011;39536;52.198;9.920;2023-09-08T08:31:23;11.03;;;7.40;;
13967;SDS011;39536;52.198;9.920;2023-09-08T08:33:51;7.90;;;7.10;;
13967;SDS011;39536;52.198;9.920;2023-09-08T08:36:18;8.27;;;7.50;;
13967;SDS011;39536;52.198;9.920;2023-09-08T08:40:07;7.83;;;7.23;;
13967;SDS011;39536;52.198;9.920;2023-09-08T08:41:57;7.70;;;7.07;;
13967;SDS011;39536;52.198;9.920;2023-09-08T08:44:24;8.30;;;6.97;;
13967;SDS011;39536;52.198;9.920;2023-09-08T08:46:53;7.43;;;6.47;;
13967;SDS011;39536;52.198;9.920;2023-09-08T08:49:22;6.40;;;5.90;;
13967;SDS011;39536;52.198;9.920;2023-09-08T08:51:49;7.17;;;6.57;;
13967;SDS011;39536;52.198;9.920;2023-09-08T08:54:18;7.80;;;7.20;;
13967;SDS011;39536;52.198;9.920;2023-09-08T08:56:45;7.43;;;7.03;;
13967;SDS011;39536;52.198;9.920;2023-09-08T08:59:13;7.87;;;6.97;;
13967;SDS011;39536;52.198;9.920;2023-09-08T09:01:41;7.93;;;7.27;;
13967;SDS011;39536;52.198;9.920;2023-09-08T09:04:09;7.97;;;7.37;;
13967;SDS011;39536;52.198;9.920;2023-09-08T09:06:38;8.27;;;7.60;;
13967;SDS011;39536;52.198;9.920;2023-09-08T09:09:05;10.93;;;7.93;;
13967;SDS011;39536;52.198;9.920;2023-09-08T09:11:33;7.90;;;7.27;;
13967;SDS011;39536;52.198;9.920;2023-09-08T09:14:00;9.20;;;8.13;;
13967;SDS011;39536;52.198;9.920;2023-09-08T09:16:27;8.40;;;7.80;;
13967;SDS011;39536;52.198;9.920;2023-09-08T09:18:54;8.23;;;7.43;;
13967;SDS011;39536;52.198;9.920;2023-09-08T09:21:24;8.53;;;7.90;;
13967;SDS011;39536;52.198;9.920;2023-09-08T09:24:10;8.27;;;7.50;;
13967;SDS011;39536;52.198;9.920;2023-09-08T09:26:40;7.57;;;7.00;;
13967;SDS011;39536;52.198;9.920;2023-09-08T09:29:08;7.10;;;6.70;;
13967;SDS011;39536;52.198;9.920;2023-09-08T09:31:40;7.70;;;6.93;;
13967;SDS011;39536;52.198;9.920;2023-09-08T09:34:17;7.77;;;7.27;;
13967;SDS011;39536;52.198;9.920;2023-09-08T09:36:46;7.03;;;6.53;;
13967;SDS011;39536;52.198;9.920;2023-09-08T09:39:16;7.80;;;7.20;;
13967;SDS011;39536;52.198;9.920;2023-09-08T09:41:44;7.77;;;7.17;;
13967;SDS011;39536;52.198;9.920;2023-09-08T09:44:11;7.67;;;6.97;;
13967;SDS011;39536;52.198;9.920;2023-09-08T09:46:38;6.87;;;6.47;;
13967;SDS011;39536;52.198;9.920;2023-09-08T09:49:09;9.33;;;8.47;;
13967;SDS011;39536;52.198;9.920;2023-09-08T09:51:39;10.60;;;6.70;;
13967;SDS011;39536;52.198;9.920;2023-09-08T09:54:09;7.10;;;6.70;;
13967;SDS011;39536;52.198;9.920;2023-09-08T09:56:38;7.10;;;6.60;;
13967;SDS011;39536;52.198;9.920;2023-09-08T09:59:07;6.63;;;6.20;;
13967;SDS011;39536;52.198;9.920;2023-09-08T10:01:35;7.60;;;6.90;;
13967;SDS011;39536;52.198;9.920;2023-09-08T10:04:02;6.90;;;6.40;;
13967;SDS011;39536;52.198;9.920;2023-09-08T10:06:30;6.63;;;6.10;;
13967;SDS011;39536;52.198;9.920;2023-09-08T10:08:58;7.10;;;6.60;;
13967;SDS011;39536;52.198;9.920;2023-09-08T10:11:29;6.60;;;6.00;;
13967;SDS011;39536;52.198;9.920;2023-09-08T10:14:01;6.53;;;6.13;;
13967;SDS011;39536;52.198;9.920;2023-09-08T10:16:30;7.60;;;7.10;;
13967;SDS011;39536;52.198;9.920;2023-09-08T10:19:06;6.97;;;6.43;;
13967;SDS011;39536;52.198;9.920;2023-09-08T10:21:36;6.50;;;6.10;;
13967;SDS011;39536;52.198;9.920;2023-09-08T10:24:11;7.63;;;6.90;;
13967;SDS011;39536;52.198;9.920;2023-09-08T10:27:00;6.77;;;6.27;;
13967;SDS011;39536;52.198;9.920;2023-09-08T10:29:34;6.30;;;5.90;;
13967;SDS011;39536;52.198;9.920;2023-09-08T10:32:01;8.20;;;6.60;;
13967;SDS011;39536;52.198;9.920;2023-09-08T10:34:30;6.73;;;6.13;;
13967;SDS011;39536;52.198;9.920;2023-09-08T10:36:57;6.50;;;5.90;;
13967;SDS011;39536;52.198;9.920;2023-09-08T10:39:28;7.90;;;5.90;;
13967;SDS011;39536;52.198;9.920;2023-09-08T10:44:59;6.47;;;6.07;;
13967;SDS011;39536;52.198;9.920;2023-09-08T10:47:31;6.23;;;5.60;;
13967;SDS011;39536;52.198;9.920;2023-09-08T10:50:00;5.83;;;5.53;;
13967;SDS011;39536;52.198;9.920;2023-09-08T10:52:28;6.13;;;5.83;;
13967;SDS011;39536;52.198;9.920;2023-09-08T10:54:58;6.23;;;5.77;;
13967;SDS011;39536;52.198;9.920;2023-09-08T10:57:24;6.83;;;6.10;;
13967;SDS011;39536;52.198;9.920;2023-09-08T10:59:53;6.53;;;6.00;;
13967;SDS011;39536;52.198;9.920;2023-09-08T11:02:34;6.30;;;5.03;;
13967;SDS011;39536;52.198;9.920;2023-09-08T11:05:06;5.70;;;5.30;;
13967;SDS011;39536;52.198;9.920;2023-09-08T11:07:34;5.83;;;5.10;;
13967;SDS011;39536;52.198;9.920;2023-09-08T11:10:02;5.37;;;4.87;;
13967;SDS011;39536;52.198;9.920;2023-09-08T11:12:29;7.17;;;5.37;;
13967;SDS011;39536;52.198;9.920;2023-09-08T11:14:58;7.00;;;6.40;;
13967;SDS011;39536;52.198;9.920;2023-09-08T11:17:27;6.10;;;5.50;;
13967;SDS011;39536;52.198;9.920;2023-09-08T11:19:54;5.27;;;4.97;;
13967;SDS011;39536;52.198;9.920;2023-09-08T11:22:22;4.70;;;4.40;;
13967;SDS011;39536;52.198;9.920;2023-09-08T11:24:50;5.00;;;4.60;;
13967;SDS011;39536;52.198;9.920;2023-09-08T11:27:20;5.30;;;4.90;;
13967;SDS011;39536;52.198;9.920;2023-09-08T11:29:51;5.60;;;5.10;;
13967;SDS011;39536;52.198;9.920;2023-09-08T11:32:21;5.40;;;5.10;;
13967;SDS011;39536;52.198;9.920;2023-09-08T11:34:48;5.37;;;5.07;;
13967;SDS011;39536;52.198;9.920;2023-09-08T11:37:16;5.50;;;5.10;;
13967;SDS011;39536;52.198;9.920;2023-09-08T11:39:45;5.53;;;4.97;;
13967;SDS011;39536;52.198;9.920;2023-09-08T11:42:13;5.27;;;4.90;;
13967;SDS011;39536;52.198;9.920;2023-09-08T11:44:42;5.30;;;5.00;;
13967;SDS011;39536;52.198;9.920;2023-09-08T11:47:16;4.70;;;4.40;;
13967;SDS011;39536;52.198;9.920;2023-09-08T11:52:51;5.17;;;4.80;;
13967;SDS011;39536;52.198;9.920;2023-09-08T11:55:21;6.50;;;5.53;;
13967;SDS011;39536;52.198;9.920;2023-09-08T11:57:49;5.47;;;5.07;;
13967;SDS011;39536;52.198;9.920;2023-09-08T12:00:23;4.83;;;4.53;;
13967;SDS011;39536;52.198;9.920;2023-09-08T12:02:52;4.87;;;4.57;;
13967;SDS011;39536;52.198;9.920;2023-09-08T12:05:25;4.90;;;4.53;;
13967;SDS011;39536;52.198;9.920;2023-09-08T12:07:53;4.50;;;4.30;;
13967;SDS011;39536;52.198;9.920;2023-09-08T12:10:21;4.70;;;4.23;;
13967;SDS011;39536;52.198;9.920;2023-09-08T12:12:51;4.73;;;4.47;;
13967;SDS011;39536;52.198;9.920;2023-09-08T12:15:33;4.80;;;4.30;;
13967;SDS011;39536;52.198;9.920;2023-09-08T12:18:04;5.20;;;4.90;;
13967;SDS011;39536;52.198;9.920;2023-09-08T12:20:35;4.93;;;4.53;;
13967;SDS011;39536;52.198;9.920;2023-09-08T12:23:14;4.73;;;4.43;;
13967;SDS011;39536;52.198;9.920;2023-09-08T12:25:46;4.67;;;4.37;;
13967;SDS011;39536;52.198;9.920;2023-09-08T12:28:15;3.90;;;3.70;;
13967;SDS011;39536;52.198;9.920;2023-09-08T12:30:45;5.83;;;5.33;;
13967;SDS011;39536;52.198;9.920;2023-09-08T12:33:14;5.07;;;4.67;;
13967;SDS011;39536;52.198;9.920;2023-09-08T12:35:47;4.63;;;4.23;;
13967;SDS011;39536;52.198;9.920;2023-09-08T12:38:16;4.47;;;4.07;;
13967;SDS011;39536;52.198;9.920;2023-09-08T12:40:43;5.00;;;4.70;;
13967;SDS011;39536;52.198;9.920;2023-09-08T12:43:10;4.07;;;3.87;;
13967;SDS011;39536;52.198;9.920;2023-09-08T12:45:36;4.57;;;4.30;;
13967;SDS011;39536;52.198;9.920;2023-09-08T12:48:03;6.13;;;4.40;;
13967;SDS011;39536;52.198;9.920;2023-09-08T12:50:32;4.90;;;4.50;;
13967;SDS011;39536;52.198;9.920;2023-09-08T12:53:00;4.93;;;4.63;;
13967;SDS011;39536;52.198;9.920;2023-09-08T12:55:27;4.80;;;4.50;;
13967;SDS011;39536;52.198;9.920;2023-09-08T12:57:54;4.63;;;4.43;;
13967;SDS011;39536;52.198;9.920;2023-09-08T13:00:20;4.40;;;4.20;;
13967;SDS011;39536;52.198;9.920;2023-09-08T13:02:48;4.63;;;4.37;;
13967;SDS011;39536;52.198;9.920;2023-09-08T13:05:15;4.63;;;4.33;;
13967;SDS011;39536;52.198;9.920;2023-09-08T13:07:42;5.13;;;4.73;;
13967;SDS011;39536;52.198;9.920;2023-09-08T13:10:10;4.67;;;4.37;;
13967;SDS011;39536;52.198;9.920;2023-09-08T13:12:38;4.50;;;4.20;;
13967;SDS011;39536;52.198;9.920;2023-09-08T13:15:07;4.47;;;4.27;;
13967;SDS011;39536;52.198;9.920;2023-09-08T13:17:37;4.93;;;4.57;;
13967;SDS011;39536;52.198;9.920;2023-09-08T13:20:05;4.60;;;4.30;;
13967;SDS011;39536;52.198;9.920;2023-09-08T13:22:33;4.40;;;4.20;;
13967;SDS011;39536;52.198;9.920;2023-09-08T13:25:00;5.00;;;4.00;;
13967;SDS011;39536;52.198;9.920;2023-09-08T13:27:28;4.47;;;4.07;;
13967;SDS011;39536;52.198;9.920;2023-09-08T13:30:07;4.50;;;4.20;;
13967;SDS011;39536;52.198;9.920;2023-09-08T13:32:35;3.97;;;3.67;;
13967;SDS011;39536;52.198;9.920;2023-09-08T13:35:02;4.27;;;4.07;;
13967;SDS011;39536;52.198;9.920;2023-09-08T13:37:29;4.47;;;4.17;;
13967;SDS011;39536;52.198;9.920;2023-09-08T13:39:56;8.83;;;4.40;;
13967;SDS011;39536;52.198;9.920;2023-09-08T13:42:23;4.37;;;3.90;;
13967;SDS011;39536;52.198;9.920;2023-09-08T13:44:51;6.20;;;4.63;;
13967;SDS011;39536;52.198;9.920;2023-09-08T13:47:20;4.57;;;4.13;;
13967;SDS011;39536;52.198;9.920;2023-09-08T13:49:47;4.53;;;4.10;;
13967;SDS011;39536;52.198;9.920;2023-09-08T13:52:15;4.43;;;4.03;;
13967;SDS011;39536;52.198;9.920;2023-09-08T13:54:43;5.77;;;4.57;;
13967;SDS011;39536;52.198;9.920;2023-09-08T13:57:10;4.03;;;3.73;;
13967;SDS011;39536;52.198;9.920;2023-09-08T13:59:37;4.37;;;4.17;;
13967;SDS011;39536;52.198;9.920;2023-09-08T14:02:05;6.27;;;4.40;;
13967;SDS011;39536;52.198;9.920;2023-09-08T14:04:32;4.80;;;4.40;;
13967;SDS011;39536;52.198;9.920;2023-09-08T14:06:58;4.70;;;4.40;;
13967;SDS011;39536;52.198;9.920;2023-09-08T14:09:25;4.47;;;4.13;;
13967;SDS011;39536;52.198;9.920;2023-09-08T14:11:52;4.43;;;4.20;;
13967;SDS011;39536;52.198;9.920;2023-09-08T14:14:19;4.83;;;4.53;;
13967;SDS011;39536;52.198;9.920;2023-09-08T14:16:46;5.33;;;4.20;;
13967;SDS011;39536;52.198;9.920;2023-09-08T14:19:15;4.67;;;4.47;;
13967;SDS011;39536;52.198;9.920;2023-09-08T14:21:42;4.30;;;4.00;;
13967;SDS011;39536;52.198;9.920;2023-09-08T14:24:10;4.83;;;4.00;;
13967;SDS011;39536;52.198;9.920;2023-09-08T14:26:39;4.70;;;4.40;;
13967;SDS011;39536;52.198;9.920;2023-09-08T14:29:09;4.20;;;4.00;;
13967;SDS011;39536;52.198;9.920;2023-09-08T14:31:37;4.83;;;4.43;;
13967;SDS011;39536;52.198;9.920;2023-09-08T14:34:04;4.40;;;4.10;;
13967;SDS011;39536;52.198;9.920;2023-09-08T14:36:32;4.53;;;4.27;;
13967;SDS011;39536;52.198;9.920;2023-09-08T14:38:59;4.57;;;4.30;;
13967;SDS011;39536;52.198;9.920;2023-09-08T14:41:26;5.17;;;4.67;;
13967;SDS011;39536;52.198;9.920;2023-09-08T14:43:52;4.83;;;4.43;;
13967;SDS011;39536;52.198;9.920;2023-09-08T14:46:19;9.00;;;4.37;;
13967;SDS011;39536;52.198;9.920;2023-09-08T14:48:46;4.50;;;4.30;;
13967;SDS011;39536;52.198;9.920;2023-09-08T14:51:12;5.23;;;4.93;;
13967;SDS011;39536;52.198;9.920;2023-09-08T14:53:42;5.27;;;4.93;;
13967;SDS011;39536;52.198;9.920;2023-09-08T14:56:10;4.70;;;4.30;;
13967;SDS011;39536;52.198;9.920;2023-09-08T14:58:36;4.57;;;4.27;;